Time;durP1;ratioP1;P1;durP2;ratioP2;P2;SDS_P1;SDS_P2;PMS_P1;PMS_P2;Temp;Humidity;BMP_temperature;BMP_pressure;BME280_temperature;BME280_humidity;BME280_pressure;Samples;Min_cycle;Max_cycle;Signal;HPM_P1;HPM_P2
2021/12/22 00:01:21;;;;;;;11.53;6.75;;;;;;;-6.54;57.82;99583.30;1761121;81;21025;-37
2021/12/22 00:03:47;;;;;;;11.95;6.83;;;;;;;-6.42;57.38;99583.18;1761388;80;21607;-37
2021/12/22 00:06:20;;;;;;;12.50;6.73;;;;;;;-6.43;57.16;99586.34;1761348;81;21260;-37
2021/12/22 00:08:45;;;;;;;12.05;6.95;;;;;;;-6.42;56.96;99595.05;1761423;80;21017;-37
2021/12/22 00:11:12;;;;;;;12.65;6.80;;;;;;;-6.44;56.61;99595.83;1761219;81;21013;-37
2021/12/22 00:13:39;;;;;;;11.85;6.72;;;;;;;-6.59;56.61;99592.45;1761236;80;21101;-36
2021/12/22 00:16:06;;;;;;;11.43;6.58;;;;;;;-6.69;56.84;99596.26;1761056;81;21140;-37
2021/12/22 00:18:34;;;;;;;16.85;6.15;;;;;;;-6.74;57.11;99599.63;1761388;80;21677;-37
2021/12/22 00:21:01;;;;;;;12.10;6.40;;;;;;;-6.74;57.09;99593.03;1761251;81;20961;-37
2021/12/22 00:23:28;;;;;;;10.98;6.22;;;;;;;-6.72;57.15;99598.84;1761047;81;20981;-37
2021/12/22 00:25:54;;;;;;;10.63;5.65;;;;;;;-6.65;57.09;99602.64;1761110;81;21017;-45
2021/12/22 00:28:22;;;;;;;9.80;5.65;;;;;;;-6.56;56.96;99608.30;1760974;80;21143;-37
2021/12/22 00:30:50;;;;;;;10.48;6.05;;;;;;;-6.55;56.83;99605.43;1761100;81;21005;-37
2021/12/22 00:33:19;;;;;;;10.10;5.75;;;;;;;-6.56;56.91;99616.21;1761181;81;21033;-37
2021/12/22 00:35:46;;;;;;;10.88;6.15;;;;;;;-6.57;56.73;99609.33;1761168;81;21540;-37
2021/12/22 00:38:21;;;;;;;10.28;5.78;;;;;;;-6.56;56.95;99610.42;1761227;80;21065;-37
2021/12/22 00:40:48;;;;;;;13.18;5.72;;;;;;;-6.48;56.81;99611.31;1761185;80;21102;-37
2021/12/22 00:43:16;;;;;;;9.25;5.65;;;;;;;-6.43;56.68;99617.98;1761030;81;21472;-37
2021/12/22 00:45:43;;;;;;;11.53;6.20;;;;;;;-6.47;56.38;99625.30;1761123;81;20965;-37
2021/12/22 00:48:10;;;;;;;12.55;6.60;;;;;;;-6.55;56.31;99613.86;1761179;81;21501;-37
2021/12/22 00:50:38;;;;;;;11.85;6.08;;;;;;;-6.67;56.29;99623.16;1761336;81;20910;-37
2021/12/22 00:53:05;;;;;;;10.53;6.00;;;;;;;-6.77;56.29;99623.80;1761118;81;21098;-37
2021/12/22 00:55:32;;;;;;;10.58;6.08;;;;;;;-6.90;56.55;99626.77;1761166;80;20969;-37
2021/12/22 00:57:59;;;;;;;10.23;6.12;;;;;;;-6.90;56.70;99629.41;1761319;80;21836;-37
2021/12/22 01:00:26;;;;;;;10.63;6.40;;;;;;;-6.87;56.56;99632.87;1761161;81;21029;-37
2021/12/22 01:02:53;;;;;;;9.78;5.78;;;;;;;-6.87;56.56;99632.87;1761140;81;21029;-37
2021/12/22 01:05:20;;;;;;;11.45;5.87;;;;;;;-6.87;56.74;99626.28;1761132;80;21948;-37
2021/12/22 01:07:48;;;;;;;11.38;6.00;;;;;;;-6.85;56.44;99620.27;1761183;81;21012;-37
2021/12/22 01:10:19;;;;;;;11.18;5.92;;;;;;;-6.88;56.44;99628.66;1761154;80;21762;-37
2021/12/22 01:12:45;;;;;;;12.78;6.08;;;;;;;-6.85;56.41;99629.48;1761038;81;21268;-37
2021/12/22 01:15:13;;;;;;;9.98;5.53;;;;;;;-6.83;56.19;99637.97;1761015;81;21081;-37
2021/12/22 01:17:48;;;;;;;12.00;5.80;;;;;;;-6.89;56.36;99634.96;1761249;81;22353;-37
2021/12/22 01:20:25;;;;;;;10.70;6.12;;;;;;;-6.97;56.31;99635.33;1760443;81;20977;-37
2021/12/22 01:22:49;;;;;;;12.18;6.62;;;;;;;-7.04;56.69;99642.61;1760548;81;21006;-37
2021/12/22 01:25:19;;;;;;;8.95;5.62;;;;;;;-7.01;56.71;99639.48;1761141;81;21025;-37
2021/12/22 01:27:46;;;;;;;12.25;6.53;;;;;;;-7.01;56.71;99639.48;1761073;80;21021;-37
2021/12/22 01:30:21;;;;;;;12.25;5.85;;;;;;;-6.95;56.82;99631.16;1761068;81;21126;-37
2021/12/22 01:32:50;;;;;;;11.03;6.03;;;;;;;-6.88;56.32;99635.25;1778399;80;21793;-37
2021/12/22 01:35:19;;;;;;;11.00;6.20;;;;;;;-6.91;56.16;99640.98;1779235;80;21025;-37
2021/12/22 01:37:46;;;;;;;10.05;5.65;;;;;;;-6.92;56.35;99639.38;1779798;79;21087;-37
2021/12/22 01:40:14;;;;;;;10.90;5.92;;;;;;;-6.86;56.34;99638.94;1779370;80;21577;-37
2021/12/22 01:42:41;;;;;;;12.15;6.33;;;;;;;-6.80;56.09;99641.95;1779368;80;21069;-37
2021/12/22 01:51:07;;;;;;;8.93;5.75;;;;;;;-6.77;54.99;99652.80;1779354;80;21079;-37
2021/12/22 01:53:46;;;;;;;11.18;5.85;;;;;;;-6.77;54.99;99652.80;1779688;79;21040;-37
2021/12/22 01:56:21;;;;;;;10.65;5.92;;;;;;;-6.90;54.85;99649.17;1779464;80;21080;-37
2021/12/22 01:58:46;;;;;;;13.08;5.72;;;;;;;-6.90;54.85;99649.17;1779004;80;20989;-38
2021/12/22 02:01:15;;;;;;;8.80;5.37;;;;;;;-6.93;54.95;99654.92;1779430;80;21882;-38
2021/12/22 02:03:48;;;;;;;9.53;6.17;;;;;;;-6.95;54.81;99660.14;1779822;80;21563;-38
2021/12/22 02:06:14;;;;;;;10.90;6.08;;;;;;;-7.10;55.21;99660.67;1779525;80;21032;-38
2021/12/22 02:08:44;;;;;;;10.70;5.58;;;;;;;-7.10;55.21;99660.67;1779361;80;21995;-38
2021/12/22 02:11:12;;;;;;;12.90;5.58;;;;;;;-7.13;55.21;99661.16;1779305;80;21008;-38
2021/12/22 02:13:42;;;;;;;10.10;5.70;;;;;;;-7.16;55.05;99661.61;1779641;80;20957;-38
2021/12/22 02:16:11;;;;;;;13.65;6.42;;;;;;;-7.21;55.02;99660.23;1779142;78;21602;-38
2021/12/22 02:18:42;;;;;;;10.50;5.25;;;;;;;-7.21;55.14;99662.33;1779508;80;21091;-38
2021/12/22 02:21:09;;;;;;;10.72;5.60;;;;;;;-7.12;54.82;99667.52;1779487;80;21172;-38
2021/12/22 02:23:36;;;;;;;8.40;5.20;;;;;;;-7.09;54.61;99663.59;1779465;80;21076;-38
2021/12/22 02:26:20;;;;;;;10.38;5.40;;;;;;;-7.05;54.27;99669.98;1779508;80;20957;-38
2021/12/22 02:28:45;;;;;;;9.70;5.47;;;;;;;-7.44;54.13;99670.33;1777478;79;21511;-38
2021/12/22 02:31:13;;;;;;;9.88;5.25;;;;;;;-7.44;54.13;99670.33;1774782;80;21333;-38
2021/12/22 02:33:39;;;;;;;7.28;4.65;;;;;;;-7.63;54.43;99668.39;1761503;80;21843;-38
2021/12/22 02:36:09;;;;;;;10.28;6.20;;;;;;;-7.82;54.84;99677.47;1761460;81;20939;-38
2021/12/22 02:38:39;;;;;;;11.73;5.60;;;;;;;-7.92;55.00;99666.73;1761318;81;21007;-38
2021/12/22 02:41:08;;;;;;;11.22;5.65;;;;;;;-8.08;55.31;99663.48;1761051;81;21503;-38
2021/12/22 02:43:43;;;;;;;9.15;4.80;;;;;;;-8.19;55.72;99674.33;1761359;80;21049;-38
2021/12/22 02:46:05;;;;;;;8.35;5.28;;;;;;;-8.12;56.06;99676.82;1760583;81;21258;-38
2021/12/22 02:48:31;;;;;;;10.25;5.65;;;;;;;-8.02;56.01;99679.67;1761168;81;21009;-38
2021/12/22 02:51:01;;;;;;;9.20;4.87;;;;;;;-7.90;55.97;99687.05;1761483;81;21068;-37
2021/12/22 02:54:19;;;;;;;13.30;6.03;;;;;;;-7.76;55.81;99688.39;1761467;81;20997;-38
2021/12/22 02:56:03;;;;;;;;;;;;;;;-7.65;55.57;99688.87;1760007;81;21084;-38
2021/12/22 03:04:27;;;;;;;13.80;5.85;;;;;;;-7.67;55.74;99685.69;1761471;81;21477;-38
2021/12/22 03:06:02;;;;;;;13.62;6.58;;;;;;;-7.54;55.50;99689.88;1739137;81;21017;-38
2021/12/22 03:08:29;;;;;;;18.17;7.90;;;;;;;-7.55;55.63;99700.92;1761283;81;20962;-38
2021/12/22 03:10:56;;;;;;;18.32;8.88;;;;;;;-7.62;55.89;99694.20;1761171;81;21149;-38
2021/12/22 03:13:23;;;;;;;17.60;7.90;;;;;;;-7.62;55.89;99694.20;1756706;80;21835;-38
2021/12/22 03:15:50;;;;;;;17.65;8.50;;;;;;;-7.76;56.18;99695.48;1761239;81;21089;-38
2021/12/22 03:18:18;;;;;;;11.20;6.28;;;;;;;-7.88;56.51;99696.81;1761107;81;21025;-38
2021/12/22 03:20:50;;;;;;;13.03;6.65;;;;;;;-8.00;57.00;99696.04;1761556;81;21532;-38
2021/12/22 03:23:13;;;;;;;13.10;7.03;;;;;;;-8.07;57.45;99708.50;1760488;81;21155;-38
2021/12/22 03:25:39;;;;;;;13.88;6.87;;;;;;;-8.11;57.74;99706.05;1761502;81;21535;-38
2021/12/22 03:28:06;;;;;;;14.15;6.85;;;;;;;-8.05;57.97;99703.82;1761231;80;21057;-38
2021/12/22 03:30:33;;;;;;;12.55;7.05;;;;;;;-8.03;57.83;99701.23;1761103;80;21002;-38
2021/12/22 03:33:01;;;;;;;13.78;6.95;;;;;;;-8.03;58.12;99700.42;1780302;80;20981;-38
2021/12/22 03:35:29;;;;;;;12.88;6.55;;;;;;;-8.03;58.12;99700.42;1783153;80;21154;-38
2021/12/22 03:37:58;;;;;;;12.40;6.80;;;;;;;-8.03;58.05;99699.91;1783150;80;20956;-38
2021/12/22 03:40:25;;;;;;;12.15;6.10;;;;;;;-8.06;58.10;99705.65;1783566;80;21048;-38
2021/12/22 03:42:52;;;;;;;13.58;6.92;;;;;;;-8.03;58.29;99710.95;1783063;80;21057;-38
2021/12/22 03:45:19;;;;;;;9.48;6.15;;;;;;;-7.95;58.21;99709.31;1782981;80;21025;-38
2021/12/22 03:47:45;;;;;;;12.50;5.87;;;;;;;-7.89;58.27;99715.48;1783184;80;21149;-38
2021/12/22 03:50:13;;;;;;;7.92;5.25;;;;;;;-7.93;58.25;99724.33;1783144;80;20973;-37
2021/12/22 03:52:41;;;;;;;8.68;4.90;;;;;;;-7.93;58.25;99724.33;1783017;80;21088;-38
2021/12/22 03:55:08;;;;;;;11.12;4.67;;;;;;;-7.94;58.40;99726.70;1783284;80;20942;-38
2021/12/22 03:57:35;;;;;;;10.08;5.05;;;;;;;-7.88;58.35;99725.76;1783051;80;21064;-38
2021/12/22 04:00:04;;;;;;;10.53;5.22;;;;;;;-7.88;58.53;99734.97;1783137;80;21146;-38
2021/12/22 04:02:31;;;;;;;9.43;5.15;;;;;;;-7.85;58.48;99734.52;1776728;80;21472;-38
2021/12/22 04:04:58;;;;;;;8.05;4.97;;;;;;;-7.88;58.53;99741.55;1774365;79;20988;-38
2021/12/22 04:07:24;;;;;;;9.48;5.55;;;;;;;-7.94;58.57;99745.89;1774626;79;20969;-38
2021/12/22 04:09:53;;;;;;;10.75;5.20;;;;;;;-7.94;58.57;99745.89;1774612;79;21057;-38
2021/12/22 04:12:19;;;;;;;9.40;5.95;;;;;;;-7.96;58.66;99742.70;1774460;80;21140;-38
2021/12/22 04:14:46;;;;;;;12.07;5.60;;;;;;;-7.97;58.68;99750.30;1774451;79;20996;-38
2021/12/22 04:17:13;;;;;;;12.73;5.58;;;;;;;-8.04;59.02;99750.95;1774600;80;21701;-38
2021/12/22 04:19:40;;;;;;;11.43;5.12;;;;;;;-8.04;59.02;99750.95;1774469;79;21029;-38
2021/12/22 04:22:07;;;;;;;14.23;6.10;;;;;;;-8.02;59.14;99761.23;1774583;79;21088;-38
2021/12/22 04:24:35;;;;;;;8.83;5.08;;;;;;;-7.99;58.96;99766.82;1774435;79;22265;-37
2021/12/22 04:27:02;;;;;;;10.45;5.70;;;;;;;-8.04;59.03;99761.48;1773460;80;20914;-38
2021/12/22 04:29:29;;;;;;;10.53;4.95;;;;;;;-8.11;59.18;99762.59;1752052;81;20937;-38
2021/12/22 04:31:55;;;;;;;9.33;4.58;;;;;;;-8.11;59.18;99762.59;1751925;81;21032;-38
2021/12/22 04:34:23;;;;;;;8.93;5.30;;;;;;;-8.12;59.50;99759.16;1752103;81;21029;-37
2021/12/22 04:36:49;;;;;;;10.48;5.12;;;;;;;-8.19;59.28;99758.48;1752036;81;21082;-37
2021/12/22 04:39:17;;;;;;;8.65;4.67;;;;;;;-8.19;59.28;99758.48;1751956;81;20945;-38
2021/12/22 04:41:44;;;;;;;11.30;6.10;;;;;;;-8.20;59.55;99763.97;1752083;81;21025;-38
2021/12/22 04:44:11;;;;;;;10.28;4.83;;;;;;;-8.18;59.39;99760.06;1751990;81;21020;-38
2021/12/22 04:46:37;;;;;;;10.35;5.12;;;;;;;-8.15;59.53;99768.03;1752165;81;21084;-37
2021/12/22 04:49:04;;;;;;;11.25;5.30;;;;;;;-8.08;59.50;99769.52;1752075;81;21141;-38
2021/12/22 04:51:33;;;;;;;9.85;5.35;;;;;;;-8.09;59.13;99775.02;1751930;81;21016;-38
2021/12/22 04:54:43;;;;;;;9.98;4.85;;;;;;;-8.10;59.42;99774.22;1752421;81;21002;-38
2021/12/22 04:56:34;;;;;;;9.55;5.42;;;;;;;-8.03;59.21;99776.20;1751929;80;20984;-38
2021/12/22 04:59:01;;;;;;;8.90;5.65;;;;;;;-8.01;58.80;99775.48;1752036;81;21012;-38
2021/12/22 05:01:28;;;;;;;10.32;5.22;;;;;;;-8.04;59.05;99779.09;1752346;81;21079;-38
2021/12/22 05:03:56;;;;;;;8.98;5.62;;;;;;;-8.00;58.89;99780.23;1752136;81;20957;-38
2021/12/22 05:06:24;;;;;;;10.88;5.45;;;;;;;-7.93;59.05;99780.90;1752063;81;21004;-38
2021/12/22 05:08:52;;;;;;;9.43;5.65;;;;;;;-7.94;58.74;99786.67;1752099;81;21088;-37
2021/12/22 05:11:18;;;;;;;9.23;5.30;;;;;;;-7.93;58.67;99778.27;1752133;81;21020;-38
2021/12/22 05:13:45;;;;;;;8.03;4.80;;;;;;;-8.00;58.49;99781.55;1752024;81;21531;-38
2021/12/22 05:16:17;;;;;;;11.45;5.50;;;;;;;-8.00;58.44;99787.61;1752120;81;20989;-37
2021/12/22 05:19:10;;;;;;;9.30;4.80;;;;;;;-7.98;58.78;99789.98;1752712;80;21024;-38
2021/12/22 05:21:27;;;;;;;6.92;4.30;;;;;;;-7.90;58.76;99790.98;1753879;80;21009;-38
2021/12/22 05:23:55;;;;;;;6.55;4.00;;;;;;;-7.84;58.31;99795.85;1751985;81;21048;-38
2021/12/22 05:26:22;;;;;;;8.03;4.10;;;;;;;-7.79;57.75;99802.55;1752179;81;21173;-38
2021/12/22 05:28:49;;;;;;;6.45;3.90;;;;;;;-7.79;57.62;99805.95;1800912;79;21056;-38
2021/12/22 05:31:15;;;;;;;6.25;3.65;;;;;;;-7.75;57.53;99803.69;1815002;79;20913;-38
2021/12/22 05:33:42;;;;;;;6.95;4.03;;;;;;;-7.69;57.40;99806.19;1815186;79;21013;-38
2021/12/22 05:36:09;;;;;;;4.17;3.02;;;;;;;-7.66;57.11;99801.80;1815270;79;20989;-37
2021/12/22 05:38:36;;;;;;;8.50;3.72;;;;;;;-7.66;56.91;99803.11;1748335;82;21938;-38
2021/12/22 05:41:03;;;;;;;6.50;3.62;;;;;;;-7.57;56.62;99804.88;1810021;79;21033;-38
2021/12/22 05:43:29;;;;;;;5.22;3.35;;;;;;;-7.55;55.92;99809.41;1815435;79;20942;-38
2021/12/22 05:45:56;;;;;;;6.40;3.00;;;;;;;-7.55;55.92;99809.41;1748261;82;20941;-38
2021/12/22 05:48:23;;;;;;;10.25;4.40;;;;;;;-7.53;55.75;99812.59;1748197;82;21045;-38
2021/12/22 05:50:53;;;;;;;7.78;3.92;;;;;;;-7.51;55.49;99816.61;1748275;82;21072;-38
2021/12/22 05:53:20;;;;;;;5.07;3.10;;;;;;;-7.51;55.51;99811.86;1815378;79;21000;-38
2021/12/22 05:55:48;;;;;;;5.40;2.90;;;;;;;-7.44;55.23;99818.30;1748488;82;21033;-38
2021/12/22 05:58:15;;;;;;;4.30;2.77;;;;;;;-7.43;54.21;99822.54;1748565;82;21068;-37
2021/12/22 06:00:41;;;;;;;3.92;2.87;;;;;;;-7.51;54.70;99830.28;1815398;79;21524;-38
2021/12/22 06:03:12;;;;;;;5.45;2.85;;;;;;;-7.50;54.64;99827.92;1815255;79;21972;-38
2021/12/22 06:05:40;;;;;;;3.62;2.30;;;;;;;-7.53;54.49;99841.04;1801666;79;20989;-38
2021/12/22 06:08:07;;;;;;;5.80;2.98;;;;;;;-7.52;54.98;99841.33;1789908;79;21004;-38
2021/12/22 06:10:35;;;;;;;4.47;2.83;;;;;;;-7.52;54.98;99841.33;1811018;79;20981;-38
2021/12/22 06:13:07;;;;;;;3.92;2.60;;;;;;;-7.50;54.25;99836.62;1810977;79;21005;-38
2021/12/22 06:15:35;;;;;;;6.42;2.90;;;;;;;-7.58;54.32;99846.19;1811167;79;21092;-38
2021/12/22 06:18:03;;;;;;;7.00;2.80;;;;;;;-7.61;54.34;99851.92;1811268;78;20929;-38
2021/12/22 06:20:31;;;;;;;6.03;3.22;;;;;;;-7.70;54.30;99851.98;1811049;79;20901;-38
2021/12/22 06:22:57;;;;;;;4.62;3.20;;;;;;;-7.67;54.61;99866.00;1811345;79;21033;-38
2021/12/22 06:25:24;;;;;;;6.62;3.37;;;;;;;-7.65;54.61;99862.60;1811051;78;21009;-37
2021/12/22 06:27:51;;;;;;;5.90;3.37;;;;;;;-7.64;54.20;99874.73;1812832;79;21106;-37
2021/12/22 06:30:20;;;;;;;6.65;3.17;;;;;;;-7.63;54.31;99879.49;1748207;82;21367;-37
2021/12/22 06:32:49;;;;;;;7.65;3.33;;;;;;;-7.62;54.38;99886.37;1748412;82;20949;-38
2021/12/22 06:35:16;;;;;;;5.97;3.50;;;;;;;-7.57;54.35;99891.23;1748325;82;23041;-38
2021/12/22 06:37:44;;;;;;;6.10;3.33;;;;;;;-7.48;54.44;99883.80;1815445;79;21498;-38
2021/12/22 06:40:11;;;;;;;7.62;4.00;;;;;;;-7.48;54.44;99883.80;1748423;82;21132;-38
2021/12/22 06:42:39;;;;;;;5.25;3.35;;;;;;;-7.36;54.60;99886.44;1748359;82;21542;-38
2021/12/22 06:45:09;;;;;;;5.87;3.30;;;;;;;-7.29;54.55;99892.38;1748687;82;20980;-38
2021/12/22 06:47:36;;;;;;;5.95;3.75;;;;;;;-7.14;54.07;99901.92;1815614;79;21044;-38
2021/12/22 06:50:04;;;;;;;8.53;3.80;;;;;;;-7.06;54.40;99904.20;1748342;82;21633;-38
2021/12/22 06:52:32;;;;;;;;;;;;;;;-6.87;54.52;99911.47;1751223;82;20982;-37
2021/12/22 06:54:59;;;;;;;7.58;3.85;;;;;;;-6.67;54.21;99909.23;1748378;82;20495;-37
2021/12/22 06:57:25;;;;;;;5.15;3.50;;;;;;;-6.40;53.90;99916.09;1815472;79;21002;-38
2021/12/22 06:59:52;;;;;;;6.85;3.70;;;;;;;-6.40;53.90;99916.09;1815281;79;21350;-38
2021/12/22 07:02:19;;;;;;;6.15;3.70;;;;;;;-6.30;53.58;99917.61;1815421;79;21609;-38
2021/12/22 07:04:45;;;;;;;7.10;3.85;;;;;;;-6.18;52.99;99918.34;1815168;79;21114;-38
2021/12/22 07:07:12;;;;;;;6.83;3.75;;;;;;;-6.13;52.48;99918.95;1815032;79;20984;-38
2021/12/22 07:09:39;;;;;;;6.80;3.83;;;;;;;-6.10;52.97;99920.62;1748414;82;21008;-38
2021/12/22 07:12:08;;;;;;;5.97;3.75;;;;;;;-6.10;52.97;99920.62;1748677;82;20989;-38
2021/12/22 07:14:36;;;;;;;7.35;3.50;;;;;;;-6.05;52.60;99918.05;1815253;79;21080;-38
2021/12/22 07:17:03;;;;;;;7.00;3.75;;;;;;;-5.89;51.94;99914.64;1815446;79;21756;-38
2021/12/22 07:19:30;;;;;;;6.55;4.10;;;;;;;-5.89;51.94;99914.64;1748308;82;20985;-38
2021/12/22 07:21:56;;;;;;;6.20;4.08;;;;;;;-5.90;52.10;99920.14;1748539;82;21542;-38
2021/12/22 07:24:23;;;;;;;8.33;4.12;;;;;;;-5.81;52.64;99921.36;1815170;79;21021;-38
2021/12/22 07:26:49;;;;;;;8.70;4.40;;;;;;;-5.67;52.26;99923.16;1815765;79;21029;-38
2021/12/22 07:29:16;;;;;;;9.20;4.78;;;;;;;-5.60;51.94;99933.03;1748113;82;21097;-38
2021/12/22 07:31:42;;;;;;;7.65;4.28;;;;;;;-5.55;52.10;99925.99;1748315;82;20954;-38
2021/12/22 07:34:22;;;;;;;7.15;4.53;;;;;;;-5.47;51.81;99930.86;1796357;79;21034;-38
2021/12/22 07:37:16;;;;;;;7.67;4.55;;;;;;;-5.44;51.76;99926.95;1780857;80;21009;-38
2021/12/22 07:39:43;;;;;;;8.38;4.90;;;;;;;-5.47;51.78;99927.45;1792582;80;21527;-38
2021/12/22 07:42:09;;;;;;;8.78;5.03;;;;;;;-5.57;51.54;99936.53;1792376;80;21062;-38
2021/12/22 07:44:36;;;;;;;6.75;4.50;;;;;;;-5.64;51.35;99938.52;1792328;80;20950;-38
2021/12/22 07:47:03;;;;;;;7.60;4.72;;;;;;;-5.66;51.59;99936.10;1792642;80;21489;-38
2021/12/22 07:49:31;;;;;;;11.10;4.80;;;;;;;-5.65;51.56;99940.87;1792426;80;21010;-38
2021/12/22 07:51:58;;;;;;;10.15;5.08;;;;;;;-5.58;51.89;99942.33;1792499;80;21002;-38
2021/12/22 07:54:24;;;;;;;9.40;5.30;;;;;;;-5.36;52.27;99949.00;1727463;82;21512;-38
2021/12/22 07:56:51;;;;;;;9.05;5.17;;;;;;;-5.16;52.40;99947.99;1754663;81;21567;-38
2021/12/22 07:59:18;;;;;;;9.03;5.22;;;;;;;-4.93;52.13;99947.78;1792352;80;21077;-38
2021/12/22 08:01:45;;;;;;;9.35;5.10;;;;;;;-4.79;51.84;99952.75;1792538;80;21085;-38
2021/12/22 08:04:12;;;;;;;10.98;5.55;;;;;;;-4.63;51.65;99954.53;1792415;80;21030;-38
2021/12/22 08:06:39;;;;;;;7.65;4.83;;;;;;;-4.46;51.13;99954.77;1792463;80;21166;-38
2021/12/22 08:09:05;;;;;;;9.73;5.72;;;;;;;-4.38;50.73;99950.88;1727234;83;21014;-38
2021/12/22 08:11:33;;;;;;;8.18;5.00;;;;;;;-4.29;50.83;99948.06;1754655;81;21028;-38
2021/12/22 08:13:59;;;;;;;6.75;4.92;;;;;;;-4.55;50.16;99901.98;1792366;80;21504;-38
2021/12/22 08:16:26;;;;;;;7.62;4.83;;;;;;;-4.21;50.03;99951.59;1792478;80;21026;-38
2021/12/22 08:18:52;;;;;;;10.30;5.00;;;;;;;-4.26;49.99;99947.56;1792674;80;21116;-38
2021/12/22 08:21:19;;;;;;;8.88;5.05;;;;;;;-4.29;50.33;99940.13;1792351;80;21673;-38
2021/12/22 08:23:46;;;;;;;6.83;3.95;;;;;;;-4.27;49.03;99945.98;1792405;80;21029;-38
2021/12/22 08:26:13;;;;;;;5.95;3.80;;;;;;;-4.53;48.98;99944.08;1792249;80;21021;-38
2021/12/22 08:28:40;;;;;;;8.00;4.17;;;;;;;-4.83;49.14;99938.67;1792558;80;21682;-38
2021/12/22 08:31:07;;;;;;;6.85;4.28;;;;;;;-5.11;49.86;99938.02;1792632;80;21753;-38
2021/12/22 08:33:38;;;;;;;8.73;4.53;;;;;;;-5.41;50.12;99942.31;1802439;79;20992;-38
2021/12/22 08:38:52;;;;;;;7.78;4.70;;;;;;;-5.77;51.53;99949.68;1748325;82;21021;-38
2021/12/22 08:41:23;;;;;;;7.62;5.05;;;;;;;-5.82;52.10;99948.79;1748222;82;21515;-38
2021/12/22 08:43:52;;;;;;;6.92;4.53;;;;;;;-5.87;52.65;99948.22;1748354;82;21907;-38
2021/12/22 08:46:18;;;;;;;6.53;4.33;;;;;;;-5.86;52.76;99949.80;1815086;79;20973;-38
2021/12/22 08:48:47;;;;;;;6.42;4.08;;;;;;;-5.83;52.88;99947.98;1748222;82;20969;-38
2021/12/22 08:51:14;;;;;;;5.80;3.80;;;;;;;-5.82;52.69;99942.19;1815022;79;20934;-38
2021/12/22 08:53:41;;;;;;;6.95;3.60;;;;;;;-5.79;52.86;99938.55;1815060;79;22205;-38
2021/12/22 08:56:08;;;;;;;5.42;3.10;;;;;;;-5.76;52.80;99940.70;1748332;82;21181;-38
2021/12/22 08:58:35;;;;;;;7.08;3.33;;;;;;;-5.71;52.19;99938.14;1748250;82;21041;-38
2021/12/22 09:01:01;;;;;;;5.55;3.17;;;;;;;-5.73;52.58;99941.56;1748215;82;20998;-38
2021/12/22 09:03:28;;;;;;;4.80;3.22;;;;;;;-5.77;52.39;99946.23;1748563;82;21538;-38
2021/12/22 09:05:55;;;;;;;6.17;3.65;;;;;;;-5.75;52.62;99943.62;1748348;82;21096;-38
2021/12/22 09:08:23;;;;;;;5.65;3.50;;;;;;;-5.75;52.47;99947.59;1814938;79;21323;-38
2021/12/22 09:10:50;;;;;;;7.35;3.98;;;;;;;-5.70;52.70;99942.39;1815122;79;21522;-38
2021/12/22 09:13:17;;;;;;;5.05;3.50;;;;;;;-5.66;52.49;99937.42;1815193;79;21523;-38
2021/12/22 09:15:47;;;;;;;3.62;2.80;;;;;;;-5.68;52.31;99946.64;1815294;79;20934;-38
2021/12/22 09:18:14;;;;;;;4.75;3.52;;;;;;;-5.79;52.33;99944.34;1815018;79;21068;-38
2021/12/22 09:20:40;;;;;;;6.15;3.42;;;;;;;-5.78;52.81;99945.44;1815393;79;21514;-38
2021/12/22 09:23:07;;;;;;;6.28;3.77;;;;;;;-5.66;52.78;99935.33;1743484;82;21510;-38
2021/12/22 09:25:34;;;;;;;6.42;4.25;;;;;;;-5.59;52.71;99938.59;1748264;82;21558;-38
2021/12/22 09:28:02;;;;;;;9.05;4.50;;;;;;;-5.42;52.25;99938.09;1748174;82;20977;-38
2021/12/22 09:30:35;;;;;;;8.53;4.33;;;;;;;-5.37;51.05;99931.02;1815117;79;21008;-38
2021/12/22 09:32:58;;;;;;;10.58;4.80;;;;;;;-5.38;51.04;99926.00;1814097;79;21924;-38
2021/12/22 09:35:25;;;;;;;6.70;3.72;;;;;;;-5.35;50.98;99926.83;1814929;79;21017;-38
2021/12/22 09:37:52;;;;;;;7.35;3.83;;;;;;;-5.70;50.66;99860.53;1815125;79;21008;-38
2021/12/22 09:40:18;;;;;;;7.85;4.97;;;;;;;-5.19;50.88;99924.70;1815031;79;21582;-38
2021/12/22 09:42:45;;;;;;;7.03;4.47;;;;;;;-5.05;51.10;99921.19;1801073;79;21510;-38
2021/12/22 09:45:12;;;;;;;8.05;4.85;;;;;;;-4.89;50.58;99926.97;1748226;82;21146;-38
2021/12/22 09:49:48;;;;;;;7.65;4.60;;;;;;;-4.57;50.18;99932.39;1804970;78;22586;-40
2021/12/22 09:52:19;;;;;;;8.73;4.42;;;;;;;-4.59;50.18;99929.17;1776792;80;20998;-39
2021/12/22 09:54:52;;;;;;;6.40;3.98;;;;;;;-4.42;49.29;99925.95;1779328;80;21140;-40
2021/12/22 09:57:21;;;;;;;5.00;3.27;;;;;;;-4.42;48.78;99927.28;1779154;80;20979;-40
2021/12/22 09:59:49;;;;;;;7.53;3.67;;;;;;;-4.54;48.62;99927.91;1779288;80;20970;-39
2021/12/22 10:02:18;;;;;;;6.78;4.10;;;;;;;-4.68;49.03;99926.16;1779311;80;20975;-37
2021/12/22 10:04:47;;;;;;;;;;;;;;;-4.89;48.89;99929.06;1782008;80;22222;-37
2021/12/22 10:07:19;;;;;;;6.25;3.65;;;;;;;-5.08;49.00;99924.33;1779371;80;21158;-37
2021/12/22 10:09:44;;;;;;;7.75;3.62;;;;;;;-5.33;49.94;99920.80;1778744;80;21002;-37
2021/12/22 10:12:19;;;;;;;7.55;4.17;;;;;;;-5.35;50.14;99917.58;1779322;80;20951;-37
2021/12/22 10:14:55;;;;;;;7.15;3.85;;;;;;;-5.44;50.07;99917.19;1783049;79;21072;-37
2021/12/22 10:17:41;;;;;;;6.20;4.17;;;;;;;-5.46;50.22;99919.78;1783773;80;20929;-37
2021/12/22 10:20:14;;;;;;;6.62;3.40;;;;;;;-5.43;50.38;99923.28;1783674;80;22032;-37
2021/12/22 10:22:44;;;;;;;6.10;3.95;;;;;;;-5.34;50.15;99915.22;1783819;80;20997;-37
2021/12/22 10:25:14;;;;;;;4.30;3.40;;;;;;;-5.29;50.24;99920.59;1783633;80;21483;-37
2021/12/22 10:27:44;;;;;;;6.30;3.80;;;;;;;-5.26;50.33;99916.13;1783772;80;21068;-37
2021/12/22 10:30:33;;;;;;;5.50;3.62;;;;;;;-5.19;50.06;99912.00;1783700;80;21028;-37
2021/12/22 10:33:18;;;;;;;7.05;3.60;;;;;;;-5.20;50.24;99918.33;1783693;80;21820;-37
2021/12/22 10:35:54;;;;;;;5.87;3.80;;;;;;;-5.21;50.21;99916.20;1782216;80;20996;-37
2021/12/22 10:38:25;;;;;;;8.05;3.80;;;;;;;-5.27;50.09;99919.29;1782927;79;21448;-37
2021/12/22 10:40:57;;;;;;;4.42;3.22;;;;;;;-5.30;50.41;99912.38;1783695;80;21069;-37
2021/12/22 10:43:28;;;;;;;6.75;3.40;;;;;;;-5.34;50.11;99911.27;1783139;80;21036;-37
2021/12/22 10:45:59;;;;;;;6.15;3.52;;;;;;;-5.43;50.18;99919.31;1783804;80;21114;-37
2021/12/22 10:51:26;;;;;;;5.90;3.52;;;;;;;-5.64;50.76;99914.74;1787158;80;21029;-37
2021/12/22 10:53:53;;;;;;;6.60;3.98;;;;;;;-5.68;50.99;99925.52;1786645;80;20957;-37
2021/12/22 10:56:32;;;;;;;7.78;4.17;;;;;;;-5.66;51.19;99924.77;1787083;80;21087;-37
2021/12/22 10:59:10;;;;;;;7.20;4.35;;;;;;;-5.56;51.38;99923.06;1787021;80;21150;-37
2021/12/22 11:01:52;;;;;;;6.53;3.87;;;;;;;-5.48;51.56;99916.59;1782982;80;21004;-37
2021/12/22 11:04:21;;;;;;;;;;;;;;;-5.42;51.63;99920.92;1785850;80;20960;-37
2021/12/22 11:06:48;;;;;;;5.30;3.10;;;;;;;-5.38;51.83;99914.91;1786593;79;20127;-36
2021/12/22 11:09:16;;;;;;;6.97;4.67;;;;;;;-5.43;51.74;99911.39;1786518;80;20997;-37
2021/12/22 11:11:53;;;;;;;9.13;4.83;;;;;;;-5.48;52.02;99911.31;1786427;80;21765;-37
2021/12/22 11:14:29;;;;;;;5.60;3.90;;;;;;;-5.47;52.32;99911.05;1785554;80;21076;-37
2021/12/22 11:17:11;;;;;;;9.20;4.70;;;;;;;-5.52;52.09;99907.04;1786589;79;20926;-37
2021/12/22 11:19:57;;;;;;;6.97;4.17;;;;;;;-5.57;52.44;99907.48;1786448;80;21037;-37
2021/12/22 11:22:36;;;;;;;7.45;4.85;;;;;;;-5.55;52.97;99905.38;1786275;80;21522;-37
2021/12/22 11:24:54;;;;;;;10.38;5.08;;;;;;;-5.35;52.79;99905.69;1687017;83;21339;-37
2021/12/22 11:27:25;;;;;;;7.87;4.67;;;;;;;-5.21;52.75;99906.95;1786454;79;21004;-37
2021/12/22 11:29:56;;;;;;;8.75;5.15;;;;;;;-5.12;52.87;99898.08;1786430;80;20918;-37
2021/12/22 11:32:25;;;;;;;10.53;5.12;;;;;;;-5.03;52.75;99900.06;1786385;80;21467;-37
2021/12/22 11:34:57;;;;;;;6.78;4.70;;;;;;;-4.98;52.57;99905.94;1786631;80;21079;-37
2021/12/22 11:37:24;;;;;;;7.33;4.62;;;;;;;-4.92;52.47;99906.28;1786390;80;21131;-37
2021/12/22 11:39:51;;;;;;;7.62;4.80;;;;;;;-4.98;52.39;99912.02;1781425;80;21024;-37
2021/12/22 11:42:20;;;;;;;10.70;4.67;;;;;;;-5.02;52.67;99908.27;1786419;80;21007;-36
2021/12/22 11:44:53;;;;;;;8.83;4.95;;;;;;;-4.97;52.57;99909.66;1786422;79;20933;-37
2021/12/22 11:47:20;;;;;;;9.13;4.65;;;;;;;-4.91;52.62;99908.70;1785552;80;21574;-37
2021/12/22 11:49:59;;;;;;;6.97;4.05;;;;;;;-4.73;52.24;99915.52;1788513;80;21264;-37
2021/12/22 11:52:37;;;;;;;8.18;4.78;;;;;;;-4.70;52.21;99912.92;1788935;80;26957;-37
2021/12/22 11:55:17;;;;;;;7.55;4.55;;;;;;;-4.75;52.23;99913.66;1789099;80;20992;-37
2021/12/22 11:57:48;;;;;;;7.40;4.28;;;;;;;-4.79;52.56;99919.69;1788890;79;20945;-37